createdAt,value
2019-04-05T00:00:30.258Z,975.35
2019-04-05T00:01:13.262Z,975.39
2019-04-05T00:02:30.755Z,975.35
2019-04-05T00:03:30.755Z,975.34
2019-04-05T00:04:09.760Z,975.32
2019-04-05T00:05:09.758Z,975.36
2019-04-05T00:06:13.255Z,975.38
2019-04-05T00:07:31.256Z,975.37
2019-04-05T00:08:10.260Z,975.38
2019-04-05T00:09:10.256Z,975.43
2019-04-05T00:10:10.754Z,975.41
2019-04-05T00:11:14.754Z,975.39
2019-04-05T00:12:31.762Z,975.39
2019-04-05T00:13:10.754Z,975.40
2019-04-05T00:14:32.254Z,975.38
2019-04-05T00:16:46.118Z,975.34
2019-04-05T00:17:42.624Z,975.34
2019-04-05T00:18:43.141Z,975.32
2019-04-05T00:19:43.151Z,975.29
2019-04-05T00:20:43.136Z,975.35
2019-04-05T00:21:46.126Z,975.33
2019-04-05T00:22:43.624Z,975.36
2019-04-05T00:23:43.622Z,975.36
2019-04-05T00:24:43.636Z,975.34
2019-04-05T00:25:43.699Z,975.34
2019-04-05T00:26:47.629Z,975.32
2019-04-05T00:27:44.127Z,975.32
2019-04-05T00:28:44.126Z,975.31
2019-04-05T00:29:45.582Z,975.29
2019-04-05T00:31:05.137Z,975.31
2019-04-05T00:31:44.129Z,975.26
2019-04-05T00:32:48.631Z,975.26
2019-04-05T00:34:05.625Z,975.28
2019-04-05T00:35:05.624Z,975.29
2019-04-05T00:35:44.625Z,975.27
2019-04-05T00:37:11.651Z,975.23
2019-04-05T00:37:45.125Z,975.24
2019-04-05T00:39:09.124Z,975.25
2019-04-05T00:39:45.127Z,975.28
2019-04-05T00:40:45.623Z,975.28
2019-04-05T00:41:45.629Z,975.31
2019-04-05T00:42:45.624Z,975.32
2019-04-05T00:44:10.627Z,975.29
2019-04-05T00:44:46.126Z,975.31
2019-04-05T00:47:38.487Z,975.31
2019-04-05T00:48:38.494Z,975.31
2019-04-05T00:49:20.989Z,975.29
2019-04-05T00:53:20.648Z,975.32
2019-04-05T00:54:24.158Z,975.29
2019-04-05T00:55:21.156Z,975.29
2019-04-05T00:56:21.157Z,975.33
2019-04-05T00:57:21.155Z,975.29
2019-04-05T00:58:21.155Z,975.30
2019-04-05T00:59:27.128Z,975.27
2019-04-05T01:00:21.659Z,975.26
2019-04-05T01:01:21.722Z,975.26
2019-04-05T01:02:42.673Z,975.21
2019-04-05T01:03:43.158Z,975.17
2019-04-05T01:04:22.165Z,975.14
2019-04-05T01:06:56.883Z,975.01
2019-04-05T01:07:56.894Z,975.07
2019-04-05T01:08:58.359Z,975.02
2019-04-05T01:09:58.829Z,975.05
2019-04-05T01:11:01.392Z,975.09
2019-04-05T01:11:59.828Z,975.08
2019-04-05T01:13:18.896Z,975.09
2019-04-05T01:13:57.888Z,975.08
2019-04-05T01:14:57.886Z,975.11
2019-04-05T01:16:01.394Z,975.11
2019-04-05T01:16:58.397Z,975.14
2019-04-05T01:17:58.410Z,975.15
2019-04-05T01:18:58.386Z,975.18
2019-04-05T01:19:58.388Z,975.16
2019-04-05T01:21:02.387Z,975.21
2019-04-05T01:21:58.890Z,975.22
2019-04-05T01:22:58.888Z,975.24
2019-04-05T01:23:58.900Z,975.22
2019-04-05T01:25:20.384Z,975.21
2019-04-05T01:26:29.893Z,975.12
2019-04-05T01:26:59.389Z,975.17
2019-04-05T01:27:59.393Z,975.15
2019-04-05T01:30:31.126Z,975.17
2019-04-05T01:31:35.134Z,975.24
2019-04-05T01:32:31.628Z,975.26
2019-04-05T01:33:31.634Z,975.23
2019-04-05T01:34:31.632Z,975.22
2019-04-05T01:35:31.634Z,975.25
2019-04-05T01:36:35.636Z,975.25
2019-04-05T01:37:53.133Z,975.25
2019-04-05T01:38:32.133Z,975.21
2019-04-05T01:39:53.134Z,975.27
2019-04-05T01:40:53.635Z,975.28
2019-04-05T01:41:36.632Z,975.33
2019-04-05T01:42:32.633Z,975.29
2019-04-05T01:43:32.678Z,975.27
2019-04-05T01:44:53.633Z,975.26
2019-04-05T01:48:39.576Z,975.27
2019-04-05T01:49:39.583Z,975.27
2019-04-05T01:50:39.587Z,975.28
2019-04-05T01:51:40.082Z,975.27
2019-04-05T01:52:43.598Z,975.28
2019-04-05T01:53:40.087Z,975.36
2019-04-05T01:54:40.081Z,975.34
2019-04-05T01:55:40.589Z,975.36
2019-04-05T01:56:40.623Z,975.42
2019-04-05T01:57:40.592Z,975.37
2019-04-05T01:58:44.575Z,975.38
2019-04-05T01:59:41.093Z,975.40
2019-04-05T02:00:43.102Z,975.40
2019-04-05T02:01:41.080Z,975.46
2019-04-05T02:02:42.016Z,975.47
2019-04-05T02:03:41.579Z,975.46
2019-04-05T02:04:44.592Z,975.43
2019-04-05T02:05:41.588Z,975.45
2019-04-05T02:06:41.583Z,975.46
2019-04-05T02:07:42.079Z,975.49
2019-04-05T02:08:42.079Z,975.49
2019-04-05T02:10:07.079Z,975.47
2019-04-05T02:10:42.098Z,975.48
2019-04-05T02:11:42.579Z,975.45
2019-04-05T02:12:42.579Z,975.40
2019-04-05T02:13:42.580Z,975.49
2019-04-05T02:14:42.595Z,975.50
2019-04-05T02:17:18.320Z,975.48
2019-04-05T02:18:18.328Z,975.47
2019-04-05T02:19:18.339Z,975.44
2019-04-05T02:23:25.382Z,975.45
2019-04-05T02:24:25.393Z,975.40
2019-04-05T02:25:25.399Z,975.43
2019-04-05T02:26:27.889Z,975.41
2019-04-05T02:27:50.399Z,975.40
2019-04-05T02:28:25.891Z,975.41
2019-04-05T02:29:25.890Z,975.42
2019-04-05T02:30:26.395Z,975.45
2019-04-05T02:31:26.389Z,975.42
2019-04-05T02:32:26.392Z,975.44
2019-04-05T02:33:30.441Z,975.44
2019-04-05T02:34:26.896Z,975.50
2019-04-05T02:35:26.897Z,975.54
2019-04-05T02:36:26.890Z,975.50
2019-04-05T02:37:26.890Z,975.47
2019-04-05T02:38:27.391Z,975.51
2019-04-05T02:39:30.389Z,975.48
2019-04-05T02:40:27.390Z,975.50
2019-04-05T02:41:48.398Z,975.49
2019-04-05T02:42:27.942Z,975.51
2019-04-05T02:43:48.888Z,975.49
2019-04-05T02:44:31.891Z,975.49
2019-04-05T02:45:27.897Z,975.50
2019-04-05T02:46:27.889Z,975.50
2019-04-05T02:47:51.782Z,975.49
2019-04-05T02:48:28.392Z,975.54
2019-04-05T02:49:28.392Z,975.51
2019-04-05T02:50:31.887Z,975.53
2019-04-05T02:51:49.893Z,975.56
2019-04-05T02:52:28.887Z,975.54
2019-04-05T02:53:28.887Z,975.53
2019-04-05T02:54:28.888Z,975.57
2019-04-05T02:55:32.889Z,975.57
2019-04-05T02:56:29.388Z,975.54
2019-04-05T02:57:29.388Z,975.59
2019-04-05T02:58:29.389Z,975.58
2019-04-05T02:59:29.889Z,975.57
2019-04-05T03:00:54.387Z,975.58
2019-04-05T03:03:03.825Z,975.57
2019-04-05T03:04:01.384Z,975.56
2019-04-05T03:05:01.388Z,975.57
2019-04-05T03:07:37.069Z,975.53
2019-04-05T03:08:37.070Z,975.50
2019-04-05T03:09:37.065Z,975.52
2019-04-05T03:10:37.592Z,975.50
2019-04-05T03:11:40.069Z,975.52
2019-04-05T03:12:37.568Z,975.56
2019-04-05T03:13:37.567Z,975.56
2019-04-05T03:14:38.064Z,975.61
2019-04-05T03:15:38.065Z,975.56
2019-04-05T03:16:42.124Z,975.58
2019-04-05T03:17:59.065Z,975.51
2019-04-05T03:18:38.566Z,975.58
2019-04-05T03:19:39.512Z,975.57
2019-04-05T03:20:38.570Z,975.50
2019-04-05T03:21:42.585Z,975.52
2019-04-05T03:22:40.010Z,975.51
2019-04-05T03:23:39.065Z,975.53
2019-04-05T03:24:39.073Z,975.53
2019-04-05T03:25:39.064Z,975.55
2019-04-05T03:26:39.564Z,975.58
2019-04-05T03:27:43.565Z,975.57
2019-04-05T03:28:39.571Z,975.59
2019-04-05T03:29:39.573Z,975.59
2019-04-05T03:30:40.073Z,975.62
2019-04-05T03:31:40.070Z,975.63
2019-04-05T03:32:40.065Z,975.61
2019-04-05T03:34:04.628Z,975.64
2019-04-05T03:34:40.572Z,975.65
2019-04-05T03:35:40.565Z,975.66
2019-04-05T03:36:40.564Z,975.65
2019-04-05T03:37:40.569Z,975.63
2019-04-05T03:38:44.564Z,975.63
2019-04-05T03:39:41.064Z,975.63
2019-04-05T03:40:41.064Z,975.63
2019-04-05T03:41:41.064Z,975.65
2019-04-05T03:42:41.564Z,975.64
2019-04-05T03:43:42.507Z,975.68
2019-04-05T03:44:44.564Z,975.65
2019-04-05T03:45:41.596Z,975.68
2019-04-05T03:47:02.563Z,975.69
2019-04-05T03:47:42.063Z,975.67
2019-04-05T03:48:42.070Z,975.65
2019-04-05T03:52:48.765Z,975.64
2019-04-05T03:53:48.785Z,975.61
2019-04-05T03:54:52.255Z,975.65
2019-04-05T03:55:48.758Z,975.63
2019-04-05T03:56:49.254Z,975.65
2019-04-05T03:57:49.254Z,975.65
2019-04-05T03:58:49.254Z,975.73
2019-04-05T03:59:52.262Z,975.75
2019-04-05T04:00:49.756Z,975.75
2019-04-05T04:01:49.755Z,975.74
2019-04-05T04:02:49.760Z,975.77
2019-04-05T04:03:49.754Z,975.77
2019-04-05T04:04:53.263Z,975.77
2019-04-05T04:05:50.254Z,975.79
2019-04-05T04:06:50.253Z,975.78
2019-04-05T04:07:50.254Z,975.77
2019-04-05T04:08:50.753Z,975.83
2019-04-05T04:11:25.982Z,975.88
2019-04-05T04:12:46.990Z,975.91
2019-04-05T04:13:25.986Z,975.90
2019-04-05T04:14:26.484Z,975.95
2019-04-05T04:15:51.986Z,975.91
2019-04-05T04:16:26.500Z,975.95
2019-04-05T04:17:26.493Z,975.97
2019-04-05T04:18:26.987Z,975.94
2019-04-05T04:19:26.995Z,975.99
2019-04-05T04:20:26.985Z,976.04
2019-04-05T04:21:51.992Z,976.00
2019-04-05T04:23:58.725Z,976.05
2019-04-05T04:25:00.169Z,976.08
2019-04-05T04:25:59.231Z,976.08
2019-04-05T04:27:02.730Z,976.02
2019-04-05T04:27:59.229Z,976.07
2019-04-05T04:28:59.230Z,976.05
2019-04-05T04:31:30.963Z,976.11
2019-04-05T04:32:34.473Z,976.12
2019-04-05T04:33:53.426Z,976.09
2019-04-05T04:34:31.485Z,976.09
2019-04-05T04:35:31.470Z,976.04
2019-04-05T04:36:31.471Z,976.07
2019-04-05T04:37:36.423Z,976.08
2019-04-05T04:38:31.997Z,976.03
2019-04-05T04:39:31.971Z,976.06
2019-04-05T04:40:31.970Z,976.10
2019-04-05T04:41:32.257Z,976.06
2019-04-05T04:42:31.971Z,976.06
2019-04-05T04:43:35.469Z,976.12
2019-04-05T04:44:32.469Z,976.10
2019-04-05T04:45:32.479Z,976.07
2019-04-05T04:46:32.498Z,976.12
2019-04-05T04:47:34.404Z,976.10
2019-04-05T04:48:58.001Z,976.13
2019-04-05T04:49:32.977Z,976.13
2019-04-05T04:50:32.969Z,976.15
2019-04-05T04:51:33.469Z,976.19
2019-04-05T04:52:33.469Z,976.17
2019-04-05T04:53:33.470Z,976.16
2019-04-05T04:54:41.904Z,976.22
2019-04-05T04:55:33.969Z,976.17
2019-04-05T04:56:33.968Z,976.21
2019-04-05T04:57:33.981Z,976.22
2019-04-05T04:58:33.968Z,976.27
2019-04-05T04:59:37.969Z,976.30
2019-04-05T05:00:34.468Z,976.30
2019-04-05T05:01:34.483Z,976.34
2019-04-05T05:02:34.514Z,976.34
2019-04-05T05:03:34.965Z,976.31
2019-04-05T05:04:34.968Z,976.29
2019-04-05T05:05:59.969Z,976.30
2019-04-05T05:06:34.973Z,976.30
2019-04-05T05:09:06.699Z,976.34
2019-04-05T05:10:06.737Z,976.35
2019-04-05T05:11:31.709Z,976.41
2019-04-05T05:13:38.449Z,976.40
2019-04-05T05:14:38.452Z,976.38
2019-04-05T05:15:38.452Z,976.42
2019-04-05T05:16:41.952Z,976.42
2019-04-05T05:17:39.228Z,976.39
2019-04-05T05:18:38.960Z,976.40
2019-04-05T05:19:38.952Z,976.35
2019-04-05T05:20:39.453Z,976.30
2019-04-05T05:21:43.386Z,976.27
2019-04-05T05:22:39.459Z,976.32
2019-04-05T05:23:39.467Z,976.32
2019-04-05T05:24:39.452Z,976.30
2019-04-05T05:25:41.952Z,976.33
2019-04-05T05:26:43.451Z,976.35
2019-04-05T05:28:00.946Z,976.34
2019-04-05T05:28:39.949Z,976.36
2019-04-05T05:31:11.685Z,976.48
2019-04-05T05:32:36.190Z,976.47
2019-04-05T05:33:11.693Z,976.50
2019-04-05T05:34:12.191Z,976.47
2019-04-05T05:35:12.192Z,976.38
2019-04-05T05:36:12.194Z,976.35
2019-04-05T05:37:39.196Z,976.37
2019-04-05T05:38:33.691Z,976.38
2019-04-05T05:39:12.690Z,976.39
2019-04-05T05:40:12.694Z,976.45
2019-04-05T05:41:12.690Z,976.47
2019-04-05T05:42:37.197Z,976.51
2019-04-05T05:43:13.195Z,976.54
2019-04-05T05:44:34.190Z,976.49
2019-04-05T05:45:13.193Z,976.45
2019-04-05T05:46:14.625Z,976.43
2019-04-05T05:47:51.121Z,976.39
2019-04-05T05:48:13.690Z,976.38
2019-04-05T05:49:13.688Z,976.40
2019-04-05T05:50:35.191Z,976.40
2019-04-05T05:51:14.194Z,976.43
2019-04-05T05:52:14.190Z,976.42
2019-04-05T05:55:09.208Z,976.49
2019-04-05T05:55:48.954Z,976.53
2019-04-05T05:56:48.959Z,976.53
2019-04-05T05:57:49.453Z,976.59
2019-04-05T06:00:23.925Z,976.52
2019-04-05T06:01:24.635Z,976.50
2019-04-05T06:03:59.246Z,976.60
2019-04-05T06:04:56.266Z,976.54
2019-04-05T06:06:04.145Z,976.54
2019-04-05T06:08:29.357Z,976.53
2019-04-05T06:09:32.025Z,976.51
2019-04-05T06:10:28.027Z,976.48
2019-04-05T06:12:59.761Z,976.41
2019-04-05T06:13:59.769Z,976.47
2019-04-05T06:15:05.209Z,976.44
2019-04-05T06:16:01.735Z,976.43
2019-04-05T06:17:00.264Z,976.45
2019-04-05T06:18:04.849Z,976.40
2019-04-05T06:19:00.277Z,976.39
2019-04-05T06:20:00.268Z,976.41
2019-04-05T06:21:04.769Z,976.43
2019-04-05T06:22:21.768Z,976.43
2019-04-05T06:23:00.775Z,976.44
2019-04-05T06:24:00.768Z,976.45
2019-04-05T06:25:01.278Z,976.45
2019-04-05T06:26:01.282Z,976.47
2019-04-05T06:27:04.766Z,976.45
2019-04-05T06:28:01.264Z,976.47
2019-04-05T06:29:01.771Z,976.47
2019-04-05T06:30:24.268Z,976.44
2019-04-05T06:31:02.701Z,976.43
2019-04-05T06:35:08.864Z,976.39
2019-04-05T06:36:08.870Z,976.36
2019-04-05T06:37:12.875Z,976.39
2019-04-05T06:41:12.070Z,976.40
2019-04-05T06:42:16.077Z,976.38
2019-04-05T06:43:12.081Z,976.37
2019-04-05T06:44:12.578Z,976.42
2019-04-05T06:45:12.583Z,976.40
2019-04-05T06:46:12.578Z,976.37
2019-04-05T06:47:14.021Z,976.36
2019-04-05T06:48:19.382Z,976.36
2019-04-05T06:49:13.083Z,976.37
2019-04-05T06:50:13.077Z,976.38
2019-04-05T06:51:13.078Z,976.34
2019-04-05T06:52:36.012Z,976.32
2019-04-05T06:53:16.084Z,976.30
2019-04-05T06:54:13.578Z,976.26
2019-04-05T06:55:13.577Z,976.23
2019-04-05T06:56:14.076Z,976.26
2019-04-05T06:57:14.077Z,976.24
2019-04-05T06:59:48.851Z,976.21
2019-04-05T07:00:56.967Z,976.22
2019-04-05T07:02:09.867Z,976.24
2019-04-05T07:02:49.358Z,976.27
2019-04-05T07:03:55.168Z,976.27
2019-04-05T07:04:51.794Z,976.29
2019-04-05T07:05:49.358Z,976.34
2019-04-05T07:06:51.857Z,976.36
2019-04-05T07:07:49.861Z,976.40
2019-04-05T07:09:20.360Z,976.41
2019-04-05T07:09:49.858Z,976.39
2019-04-05T07:10:50.365Z,976.47
2019-04-05T07:11:50.379Z,976.47
2019-04-05T07:12:50.391Z,976.53
2019-04-05T07:13:50.371Z,976.55
2019-04-05T07:14:56.266Z,976.56
2019-04-05T07:15:50.914Z,976.59
2019-04-05T07:16:50.866Z,976.59
2019-04-05T07:17:50.863Z,976.62
2019-04-05T07:18:51.356Z,976.60
2019-04-05T07:19:55.824Z,976.57
2019-04-05T07:20:51.364Z,976.54
2019-04-05T07:21:51.368Z,976.53
2019-04-05T07:22:51.358Z,976.57
2019-04-05T07:23:51.856Z,976.58
2019-04-05T07:24:55.357Z,976.58
2019-04-05T07:25:51.855Z,976.55
2019-04-05T07:26:51.854Z,976.58
2019-04-05T07:29:23.592Z,976.60
2019-04-05T07:30:29.107Z,976.60
2019-04-05T07:31:23.596Z,976.64
2019-04-05T07:32:45.097Z,976.69
2019-04-05T07:33:45.110Z,976.69
2019-04-05T07:34:24.096Z,976.69
2019-04-05T07:35:33.333Z,976.65
2019-04-05T07:36:24.596Z,976.69
2019-04-05T07:37:23.812Z,976.69
2019-04-05T07:38:24.595Z,976.66
2019-04-05T07:39:24.600Z,976.69
2019-04-05T07:40:28.606Z,976.70
2019-04-05T07:41:25.096Z,976.72
2019-04-05T07:42:25.097Z,976.68
2019-04-05T07:43:25.148Z,976.69
2019-04-05T07:44:46.102Z,976.71
2019-04-05T07:45:25.600Z,976.72
2019-04-05T07:46:29.595Z,976.72
2019-04-05T07:47:46.595Z,976.73
2019-04-05T07:48:25.595Z,976.74
2019-04-05T07:51:18.828Z,976.73
2019-04-05T07:52:00.866Z,976.72
2019-04-05T07:52:57.837Z,976.73
2019-04-05T07:55:29.570Z,976.72
2019-04-05T07:56:29.583Z,976.71
2019-04-05T07:59:05.005Z,976.70
2019-04-05T08:00:07.010Z,976.68
2019-04-05T08:01:05.010Z,976.65
2019-04-05T08:02:26.558Z,976.63
2019-04-05T08:03:09.013Z,976.66
2019-04-05T08:04:06.966Z,976.64
2019-04-05T08:05:06.440Z,976.65
2019-04-05T08:06:05.510Z,976.65
2019-04-05T08:07:05.512Z,976.64
2019-04-05T08:08:30.510Z,976.61
2019-04-05T08:09:06.013Z,976.59
2019-04-05T08:10:06.009Z,976.60
2019-04-05T08:11:05.475Z,976.57
2019-04-05T08:12:27.511Z,976.57
2019-04-05T08:13:06.533Z,976.59
2019-04-05T08:14:31.508Z,976.60
2019-04-05T08:15:27.514Z,976.61
2019-04-05T08:17:38.122Z,976.61
2019-04-05T08:18:38.128Z,976.62
2019-04-05T08:21:13.365Z,976.62
2019-04-05T08:22:13.370Z,976.65
2019-04-05T08:24:49.103Z,976.58
2019-04-05T08:25:45.111Z,976.66
2019-04-05T08:28:16.895Z,976.63
2019-04-05T08:29:16.853Z,976.64
2019-04-05T08:30:20.856Z,976.68
2019-04-05T08:31:17.358Z,976.66
2019-04-05T08:32:17.353Z,976.67
2019-04-05T08:33:18.789Z,976.69
2019-04-05T08:34:17.352Z,976.70
2019-04-05T08:35:19.293Z,976.66
2019-04-05T08:36:20.852Z,976.70
2019-04-05T08:37:17.849Z,976.79
2019-04-05T08:38:40.005Z,976.73
2019-04-05T08:39:17.852Z,976.72
2019-04-05T08:40:40.806Z,976.74
2019-04-05T08:41:21.852Z,976.79
2019-04-05T08:42:39.351Z,976.80
2019-04-05T08:43:39.357Z,976.83
2019-04-05T08:44:18.351Z,976.83
2019-04-05T08:46:52.951Z,976.91
2019-04-05T08:47:50.094Z,976.92
2019-04-05T08:48:52.307Z,976.91
2019-04-05T08:50:11.592Z,976.92
2019-04-05T08:50:49.814Z,976.92
2019-04-05T08:51:53.047Z,976.91
2019-04-05T08:52:54.593Z,976.91
2019-04-05T08:53:51.128Z,976.93
2019-04-05T08:54:51.092Z,976.89
2019-04-05T08:55:51.093Z,976.91
2019-04-05T08:56:51.093Z,976.91
2019-04-05T08:57:51.598Z,976.96
2019-04-05T08:58:55.527Z,976.97
2019-04-05T08:59:57.534Z,976.95
2019-04-05T09:00:51.597Z,976.99
2019-04-05T09:01:51.592Z,976.95
2019-04-05T09:02:52.203Z,976.93
2019-04-05T09:03:55.593Z,976.97
2019-04-05T09:04:52.100Z,976.96
2019-04-05T09:05:52.092Z,976.98
2019-04-05T09:06:52.592Z,976.96
2019-04-05T09:08:13.597Z,976.99
2019-04-05T09:08:52.592Z,976.96
2019-04-05T09:11:28.260Z,976.99
2019-04-05T09:12:28.266Z,976.99
2019-04-05T09:13:28.268Z,977.00
2019-04-05T09:14:28.764Z,977.01
2019-04-05T09:15:34.224Z,977.02
2019-04-05T09:16:28.766Z,977.02
2019-04-05T09:17:28.765Z,977.00
2019-04-05T09:18:29.267Z,977.06
2019-04-05T09:21:04.136Z,977.06
2019-04-05T09:22:01.131Z,977.03
2019-04-05T09:23:22.173Z,977.04
2019-04-05T09:24:01.130Z,977.07
2019-04-05T09:25:01.632Z,977.05
2019-04-05T09:26:05.068Z,977.05
2019-04-05T09:28:33.117Z,977.06
2019-04-05T09:29:33.140Z,977.02
2019-04-05T09:30:33.119Z,977.04
2019-04-05T09:31:37.119Z,977.00
2019-04-05T09:32:36.458Z,976.98
2019-04-05T09:33:54.619Z,977.00
2019-04-05T09:34:33.618Z,977.03
2019-04-05T09:35:34.121Z,977.02
2019-04-05T09:36:38.118Z,977.00
2019-04-05T09:37:34.119Z,977.01
2019-04-05T09:38:34.119Z,976.98
2019-04-05T09:39:34.628Z,976.97
2019-04-05T09:40:34.617Z,976.97
2019-04-05T09:43:09.203Z,977.01
2019-04-05T09:44:30.904Z,977.01
2019-04-05T09:45:11.906Z,977.02
2019-04-05T09:46:10.414Z,977.03
2019-04-05T09:47:34.903Z,977.02
2019-04-05T09:48:11.848Z,977.03
2019-04-05T09:49:10.408Z,977.03
2019-04-05T09:50:10.405Z,977.04
2019-04-05T09:51:31.914Z,977.04
2019-04-05T09:52:10.911Z,977.06
2019-04-05T09:53:37.343Z,977.11
2019-04-05T09:54:31.914Z,977.12
2019-04-05T09:55:32.405Z,977.13
2019-04-05T09:56:11.428Z,977.15
2019-04-05T09:57:11.422Z,977.16
2019-04-05T09:58:11.406Z,977.19
2019-04-05T09:59:14.910Z,977.17
2019-04-05T10:00:27.375Z,977.19
2019-04-05T10:01:13.904Z,977.20
2019-04-05T10:02:13.912Z,977.21
2019-04-05T10:03:33.416Z,977.23
2019-04-05T10:04:36.916Z,977.24
2019-04-05T10:05:12.420Z,977.29
2019-04-05T10:06:12.407Z,977.27
2019-04-05T10:07:12.906Z,977.29
2019-04-05T10:08:12.908Z,977.27
2019-04-05T10:09:37.420Z,977.28
2019-04-05T10:10:12.908Z,977.32
2019-04-05T10:12:44.637Z,977.34
2019-04-05T10:14:05.645Z,977.36
2019-04-05T10:15:09.645Z,977.33
2019-04-05T10:17:16.385Z,977.35
2019-04-05T10:18:16.395Z,977.34
2019-04-05T10:19:16.412Z,977.34
2019-04-05T10:20:41.394Z,977.33
2019-04-05T10:21:37.891Z,977.34
2019-04-05T10:22:37.891Z,977.30
2019-04-05T10:23:37.904Z,977.30
2019-04-05T10:24:17.390Z,977.29
2019-04-05T10:25:44.019Z,977.27
2019-04-05T10:26:38.389Z,977.29
2019-04-05T10:27:17.393Z,977.28
2019-04-05T10:28:17.893Z,977.23
2019-04-05T10:30:53.251Z,977.23
2019-04-05T10:31:49.257Z,977.25
2019-04-05T10:32:49.255Z,977.23
2019-04-05T10:34:12.755Z,977.24
2019-04-05T10:36:24.621Z,977.32
2019-04-05T10:37:21.129Z,977.33
2019-04-05T10:38:21.129Z,977.34
2019-04-05T10:39:21.672Z,977.34
2019-04-05T10:40:21.661Z,977.28
2019-04-05T10:41:25.562Z,977.32
2019-04-05T10:42:25.628Z,977.35
2019-04-05T10:43:21.628Z,977.33
2019-04-05T10:44:22.137Z,977.34
2019-04-05T10:45:22.129Z,977.35
2019-04-05T10:46:22.151Z,977.33
2019-04-05T10:47:22.128Z,977.36
2019-04-05T10:48:25.627Z,977.36
2019-04-05T10:50:53.988Z,977.29
2019-04-05T10:52:14.995Z,977.36
2019-04-05T10:52:53.997Z,977.30
2019-04-05T10:53:57.495Z,977.26
2019-04-05T10:54:54.495Z,977.26
2019-04-05T10:56:15.496Z,977.24
2019-04-05T10:56:54.495Z,977.29
2019-04-05T10:57:57.431Z,977.24
2019-04-05T10:58:58.491Z,977.23
2019-04-05T10:59:54.993Z,977.24
2019-04-05T11:00:54.465Z,977.23
2019-04-05T11:01:54.551Z,977.17
2019-04-05T11:02:55.501Z,977.19
2019-04-05T11:03:55.496Z,977.18
2019-04-05T11:04:59.495Z,977.20
2019-04-05T11:05:55.494Z,977.19
2019-04-05T11:06:55.990Z,977.23
2019-04-05T11:07:56.017Z,977.26
2019-04-05T11:08:55.991Z,977.21
2019-04-05T11:09:56.003Z,977.18
2019-04-05T11:11:02.428Z,977.17
2019-04-05T11:11:56.499Z,977.17
2019-04-05T11:12:56.551Z,977.12
2019-04-05T11:13:56.500Z,977.15
2019-04-05T11:14:56.498Z,977.15
2019-04-05T11:16:02.052Z,977.11
2019-04-05T11:16:58.710Z,977.13
2019-04-05T11:17:56.996Z,977.13
2019-04-05T11:19:01.829Z,977.09
2019-04-05T11:21:53.221Z,977.16
2019-04-05T11:22:28.756Z,977.13
2019-04-05T11:25:00.466Z,977.07
2019-04-05T11:26:00.491Z,977.06
2019-04-05T11:27:25.970Z,977.04
2019-04-05T11:28:00.974Z,977.06
2019-04-05T11:29:00.971Z,977.07
2019-04-05T11:30:00.968Z,977.07
2019-04-05T11:31:02.406Z,977.07
2019-04-05T11:32:25.975Z,977.10
2019-04-05T11:33:01.472Z,977.10
2019-04-05T11:34:01.474Z,977.10
2019-04-05T11:35:01.973Z,977.09
2019-04-05T11:36:01.974Z,977.11
2019-04-05T11:37:02.892Z,977.10
2019-04-05T11:38:05.972Z,977.11
2019-04-05T11:39:05.223Z,977.07
2019-04-05T11:43:09.272Z,976.99
2019-04-05T11:44:05.287Z,976.96
2019-04-05T11:45:05.779Z,976.96
2019-04-05T11:49:11.903Z,976.92
2019-04-05T11:50:08.910Z,976.89
2019-04-05T11:51:29.909Z,976.90
2019-04-05T11:52:09.423Z,976.88
2019-04-05T11:53:09.414Z,976.87
2019-04-05T11:54:13.845Z,976.89
2019-04-05T11:55:09.409Z,976.88
2019-04-05T11:56:14.775Z,976.90
2019-04-05T11:57:09.923Z,976.91
2019-04-05T11:58:30.916Z,976.90
2019-04-05T11:59:15.531Z,976.92
2019-04-05T12:00:12.369Z,976.94
2019-04-05T12:01:34.363Z,976.96
2019-04-05T12:02:11.844Z,976.94
2019-04-05T12:03:31.409Z,977.01
2019-04-05T12:04:14.447Z,976.99
2019-04-05T12:05:10.911Z,976.99
2019-04-05T12:06:34.866Z,976.96
2019-04-05T12:07:10.909Z,976.99
2019-04-05T12:08:10.920Z,976.95
2019-04-05T12:09:35.913Z,976.96
2019-04-05T12:10:12.843Z,976.95
2019-04-05T12:11:11.409Z,976.95
2019-04-05T12:12:11.410Z,976.97
2019-04-05T12:14:50.588Z,976.93
2019-04-05T12:15:43.159Z,976.91
2019-04-05T12:16:45.654Z,976.89
2019-04-05T12:17:45.589Z,976.90
2019-04-05T12:18:43.653Z,976.87
2019-04-05T12:19:47.654Z,976.88
2019-04-05T12:20:52.365Z,976.86
2019-04-05T12:21:43.242Z,976.87
2019-04-05T12:23:05.153Z,976.86
2019-04-05T12:24:05.170Z,976.91
2019-04-05T12:24:44.153Z,976.88
2019-04-05T12:25:47.653Z,976.89
2019-04-05T12:26:44.653Z,976.91
2019-04-05T12:27:44.653Z,976.92
2019-04-05T12:28:44.651Z,976.91
2019-04-05T12:30:05.653Z,976.92
2019-04-05T12:31:02.655Z,976.92
2019-04-05T12:32:05.355Z,976.93
2019-04-05T12:32:46.598Z,976.89
2019-04-05T12:33:46.915Z,976.90
2019-04-05T12:34:45.153Z,976.89
2019-04-05T12:36:16.153Z,976.83
2019-04-05T12:36:45.653Z,976.85
2019-04-05T12:38:07.151Z,976.85
2019-04-05T12:38:45.655Z,976.87
2019-04-05T12:39:47.607Z,976.80
2019-04-05T12:41:10.822Z,976.81
2019-04-05T12:41:49.652Z,976.78
2019-04-05T12:42:49.086Z,976.78
2019-04-05T12:43:46.154Z,976.77
2019-04-05T12:44:46.655Z,976.82
2019-04-05T12:45:46.653Z,976.71
2019-04-05T12:46:48.127Z,976.67
2019-04-05T12:49:22.203Z,976.70
2019-04-05T12:50:36.203Z,976.70
2019-04-05T12:53:17.819Z,976.65
2019-04-05T12:53:56.777Z,976.69
2019-04-05T12:55:14.834Z,976.70
2019-04-05T12:56:15.325Z,976.68
2019-04-05T13:00:25.958Z,976.66
2019-04-05T13:01:00.483Z,976.71
2019-04-05T13:02:01.559Z,976.68
2019-04-05T13:04:36.807Z,976.63
2019-04-05T13:05:32.817Z,976.65
2019-04-05T13:06:32.802Z,976.62
2019-04-05T13:07:35.024Z,976.59
2019-04-05T13:08:33.301Z,976.57
2019-04-05T13:09:33.339Z,976.55
2019-04-05T13:10:36.813Z,976.60
2019-04-05T13:14:37.285Z,976.53
2019-04-05T13:15:40.786Z,976.53
2019-04-05T13:16:37.285Z,976.52
2019-04-05T13:17:37.783Z,976.51
2019-04-05T13:18:37.783Z,976.49
2019-04-05T13:19:37.782Z,976.50
2019-04-05T13:20:42.297Z,976.54
2019-04-05T13:21:38.283Z,976.50
2019-04-05T13:24:30.644Z,976.53
2019-04-05T13:25:11.106Z,976.48
2019-04-05T13:26:13.658Z,976.49
2019-04-05T13:27:11.853Z,976.47
2019-04-05T13:28:13.531Z,976.43
2019-04-05T13:29:31.157Z,976.45
2019-04-05T13:30:31.655Z,976.42
2019-04-05T13:31:35.161Z,976.39
2019-04-05T13:32:31.651Z,976.38
2019-04-05T13:33:10.651Z,976.41
2019-04-05T13:34:32.154Z,976.46
2019-04-05T13:35:11.151Z,976.41
2019-04-05T13:36:11.146Z,976.46
2019-04-05T13:37:20.526Z,976.46
2019-04-05T13:38:32.662Z,976.43
2019-04-05T13:39:12.605Z,976.46
2019-04-05T13:40:14.085Z,976.45
2019-04-05T13:41:11.651Z,976.43
2019-04-05T13:42:16.151Z,976.44
2019-04-05T13:43:33.162Z,976.44
2019-04-05T13:45:43.528Z,976.41
2019-04-05T13:46:43.536Z,976.40
2019-04-05T13:48:09.976Z,976.41
2019-04-05T13:48:44.037Z,976.41
2019-04-05T13:49:43.129Z,976.42
2019-04-05T13:50:44.050Z,976.41
2019-04-05T13:53:19.017Z,976.36
2019-04-05T13:54:15.524Z,976.31
2019-04-05T13:55:15.530Z,976.31
2019-04-05T13:56:16.025Z,976.31
2019-04-05T13:57:16.030Z,976.23
2019-04-05T13:58:16.025Z,976.29
2019-04-05T13:59:20.047Z,976.28
2019-04-05T14:00:22.528Z,976.27
2019-04-05T14:01:18.416Z,976.27
2019-04-05T14:02:20.818Z,976.25
2019-04-05T14:03:16.525Z,976.28
2019-04-05T14:04:17.086Z,976.25
2019-04-05T14:05:22.239Z,976.17
2019-04-05T14:06:17.020Z,976.21
2019-04-05T14:07:17.023Z,976.20
2019-04-05T14:08:17.033Z,976.20
2019-04-05T14:09:17.529Z,976.18
2019-04-05T14:10:42.080Z,976.18
2019-04-05T14:11:17.528Z,976.18